Tiempo atmosférico en la estación meteorológica de La Póveda de Soria, Barriomartín, Soria (1260 m.)



Fecha
DESCASC
Temp. máxima en grados centígrados (hora)
DESCASC
Temp. mínima en grados centígrados (hora)
DESCASC
Temp. media en grados centígrados
DESCASC
Racha de viento máxima en m/sg (hora)
DESCASC
Velocidad máxima media en intervalos de 10 minutos(hora)
DESCASC
Precipitaciones diarias en mm
DESCASC
Precipitaciones de 00:00 a 06:00 en mm
DESCASC
Precipitaciones de 06:00 a 12:00 en mm
DESCASC
Precipitaciones de 12:00 a 18:00 en mm
DESCASC
Precipitaciones de 18:00 a 24:00 en mm
DESCASC
23-05-2020 20 (09:50) 8.7 (23:30) 14.3 11.67 (19:10) 6.94 (19:30) 0 0 0 0 0
22-05-2020 26.9 (16:40) 9.8 (06:50) 18.3 9.17 (15:40) 4.72 (15:10) 0 0 0 0 0
21-05-2020 26.5 (16:50) 9.1 (00:00) 17.8 8.33 (15:00) 5.28 (17:20) 0 0 0 0 0
20-05-2020 23.3 (16:40) 10.5 (00:00) 16.9 9.17 (01:50) 6.11 (01:50) 0 0 0 0 0
19-05-2020 21.2 (17:30) 9 (01:00) 15.1 13.61 (01:50) 9.17 (02:00) 0 0 0 0 0
18-05-2020 18.5 (16:10) 6.9 (00:00) 12.7 11.94 (17:20) 7.78 (19:50) 0 0 0 0 0
17-05-2020 16 (17:10) 4.5 (00:00) 10.3 10.28 (20:40) 6.11 (20:30) 0 0 0 0 0
16-05-2020 8.8 (17:50) 4.2 (00:00) 6.5 11.39 (18:00) 6.94 (19:00) 0 0 0 0 0
15-05-2020 9.5 (14:30) 5.4 (23:30) 7.5 11.39 (19:00) 7.22 (18:50) 0 0 0 0 0
14-05-2020 11.6 (14:50) 5.4 (00:00) 8.5 7.78 (23:59) 5 (23:20) 9.6 0 0 5.6 4
13-05-2020 13.1 (19:00) 5.9 (00:00) 9.5 5.83 (11:20) 3.61 (21:20) 11.2 1.8 0 0.8 8.6
12-05-2020 14.7 (14:40) 3.9 (05:10) 9.3 10.83 (17:50) 5.83 (17:50) 10 0.2 0 0.4 9.4
11-05-2020 -- (--) -- (--) -- -- (--) -- (--) -- -- -- -- 1.6
10-05-2020 -- (--) -- (--) -- -- (--) -- (--) -- -- -- -- --
09-05-2020 -- (--) -- (--) -- -- (--) -- (--) -- -- -- -- --
08-05-2020 -- (--) -- (--) -- -- (--) -- (--) -- 0 -- -- --
07-05-2020 21.5 (16:00) 7.5 (00:00) 14.5 8.89 (15:10) 5.28 (15:40) 0 0 0 0 0
06-05-2020 20.5 (16:20) 5.5 (00:00) 13 6.67 (15:40) 3.61 (06:40) 0 0 0 0 0
05-05-2020 21 (18:00) 5.1 (00:00) 13 8.89 (18:30) 5 (16:20) 0 0 0 0 0
04-05-2020 23.6 (15:10) 7.9 (00:00) 15.8 12.22 (22:20) 6.94 (21:50) 0.2 0 0 0.2 0
03-05-2020 24.2 (17:30) 5.2 (07:00) 14.7 9.44 (13:50) 5 (14:00) 0 0 0 0 0
02-05-2020 21.7 (17:20) 9.2 (07:20) 15.5 11.67 (15:20) 6.39 (13:10) 0 0 0 0 0
01-05-2020 19 (17:40) 8.9 (00:00) 13.9 13.06 (13:40) 7.22 (12:40) 0 0 0 0 0
30-04-2020 12.3 (13:20) 5.7 (08:10) 9 14.17 (12:10) 7.5 (13:00) 0.4 0 0.4 0 0
29-04-2020 15.2 (15:40) 0.9 (00:00) 8 14.44 (16:10) 8.06 (16:20) 0.2 0 0 0.2 0
28-04-2020 12.7 (18:00) 3.4 (03:10) 8 11.11 (16:20) 6.67 (15:40) 0.2 0.2 0 0 0
27-04-2020 13.6 (15:10) 3.9 (00:00) 8.8 8.89 (14:50) 5 (11:00) 3.6 0 0.6 2.4 0.6
26-04-2020 12.9 (14:30) 6.6 (05:50) 9.7 6.11 (17:30) 3.61 (15:10) 3.4 0 0 2.8 0.6

Gráficas

Temp. máximas Temp. mínimas Temp. medias Precipitaciones Rachas de viento máximas Velocidades máximas media en intervalos de 10 minutos

Datos horarios

Fecha y hora oficial Temperatura (ºC) Velocidad del viento (km/h) Dirección del viento Racha (km/h) Dirección de racha Precipitación (mm) Presión (hPa) Tendencia (hPa) Humedad (%)
2020-05-25 23:00:00 12.9 12 Noroeste 24 Norte 0 -- -- 91
2020-05-25 22:00:00 13.5 13 Norte 29 Norte 0 -- -- 90
2020-05-25 21:00:00 14.8 10 Nordeste 26 Este 0 -- -- 86
2020-05-25 20:00:00 15.2 6 Norte 21 Nordeste 0 -- -- 85
2020-05-25 19:00:00 15.1 13 Norte 20 Norte 0 -- -- 86
2020-05-25 18:00:00 15.1 5 Nordeste 22 Norte 0 -- -- 85
2020-05-25 17:00:00 15.1 9 Nordeste 26 Noroeste 0 -- -- 85
2020-05-25 16:00:00 15.8 16 Nordeste 30 Nordeste 1.2 -- -- 85
2020-05-25 15:00:00 16.9 6 Norte 22 Nordeste 0.2 -- -- 82
2020-05-25 14:00:00 17.4 10 Nordeste 20 Nordeste 0.6 -- -- 79
2020-05-25 13:00:00 19.2 10 Sur 19 Sudeste 0 -- -- 72
2020-05-25 12:00:00 19 7 Sudeste 16 Sudeste 0 -- -- 72
2020-05-25 11:00:00 17.9 5 Sur 12 Sudeste 0 -- -- 74
2020-05-25 10:00:00 15.6 0 Calma 5 Sudeste 0 -- -- 82
2020-05-25 09:00:00 14.5 0 Calma 5 Norte 0 -- -- 86
2020-05-25 08:00:00 13 2 Nordeste 8 Norte 0 -- -- 90
2020-05-25 07:00:00 11.6 5 Norte 8 Norte 0 -- -- 93
2020-05-25 06:00:00 10.6 3 Norte 8 Norte 0 -- -- 90
2020-05-25 05:00:00 11.2 3 Norte 13 Norte 0 -- -- 88
2020-05-25 04:00:00 10.4 7 Norte 11 Norte 0 -- -- 92
2020-05-25 03:00:00 10.2 7 Norte 11 Norte 0 -- -- 90
2020-05-25 02:00:00 10.7 5 Norte 11 Noroeste 0 -- -- 88
2020-05-25 01:00:00 11.3 4 Norte 13 Norte 0 -- -- 87
2020-05-25 00:00:00 12 7 Norte 11 Norte 0 -- -- 84
2020-05-24 23:00:00 13.4 5 Norte 17 Norte 0 -- -- 79
2020-05-24 22:00:00 14.6 9 Norte 19 Norte 0 -- -- 74
2020-05-24 21:00:00 16.3 10 Noroeste 19 Noroeste 0 -- -- 68
2020-05-24 20:00:00 17.8 6 Nordeste 18 Nordeste 0 -- -- 63
2020-05-24 19:00:00 18.5 10 Este 22 Este 0 -- -- 63
2020-05-24 18:00:00 19.6 4 Nordeste 22 Este 0 -- -- 62
2020-05-24 17:00:00 20.4 11 Este 24 Sur 0 -- -- 59
2020-05-24 16:00:00 22.4 9 Sur 21 Sur 0 -- -- 55
2020-05-24 15:00:00 21.6 8 Sur 19 Sudeste 0 -- -- 53
2020-05-24 14:00:00 20.5 11 Sur 23 Sudeste 0 -- -- 61
2020-05-24 13:00:00 19.5 9 Sudeste 19 Sur 0 -- -- 58
2020-05-24 12:00:00 18.8 10 Sur 21 Sudeste 0 -- -- 60
2020-05-24 11:00:00 17.3 10 Sur 16 Sur 0 -- -- 61
2020-05-24 10:00:00 16.6 6 Sur 10 Sur 0 -- -- 64
2020-05-24 09:00:00 12.7 0 Calma 5 Nordeste 0 -- -- 80
2020-05-24 08:00:00 9.9 4 Norte 12 Norte 0 -- -- 82
2020-05-24 07:00:00 7.7 8 Norte 15 Norte 0 -- -- 80
2020-05-24 06:00:00 8.1 9 Norte 18 Norte 0 -- -- 74
2020-05-24 05:00:00 8.9 11 Norte 29 Noroeste 0 -- -- 73
2020-05-24 04:00:00 8.6 18 Noroeste 27 Noroeste 0 -- -- 78
2020-05-24 03:00:00 8.8 17 Norte 28 Norte 0 -- -- 78
2020-05-24 02:00:00 8.7 15 Norte 25 Norte 0 -- -- 83
2020-05-24 01:00:00 9.3 17 Norte 33 Norte 0 -- -- 82
2020-05-24 00:00:00 9.1 20 Norte 32 Norte 0 -- -- 86
2020-05-23 23:00:00 9 18 Norte 32 Norte 0 -- -- 90
2020-05-23 22:00:00 9.8 15 Norte 33 Noroeste 0 -- -- 87
2020-05-23 21:00:00 10.3 15 Norte 38 Norte 0 -- -- 86
2020-05-23 20:00:00 11.9 21 Norte 42 Norte 0 -- -- 82
2020-05-23 19:00:00 13 23 Norte 37 Norte 0 -- -- 83
2020-05-23 18:00:00 14.9 22 Norte 33 Norte 0 -- -- 77
2020-05-23 17:00:00 17.4 18 Norte 31 Norte 0 -- -- 72
2020-05-23 16:00:00 18.6 15 Norte 28 Noroeste 0 -- -- 71
2020-05-23 15:00:00 16.9 19 Norte 31 Nordeste 0 -- -- 73
2020-05-23 14:00:00 17 18 Norte 35 Norte 0 -- -- 73
2020-05-23 13:00:00 17.1 21 Norte 35 Norte 0 -- -- 74
2020-05-23 12:00:00 17.1 23 Norte 35 Norte 0 -- -- 72
2020-05-23 11:00:00 17.3 19 Norte -- -- 0 -- -- 73
2020-05-23 10:00:00 19.1 10 Noroeste 24 Norte 0 -- -- 63
2020-05-23 09:00:00 17.7 5 Sudeste 8 Sudeste 0 -- -- 65
2020-05-23 08:00:00 12.8 5 Norte 9 Norte 0 -- -- 80
2020-05-23 07:00:00 11.3 4 Norte 9 Norte 0 -- -- 81
2020-05-23 06:00:00 11.6 6 Norte 12 Norte 0 -- -- 78
2020-05-23 05:00:00 11.4 6 Norte 12 Norte 0 -- -- 77
2020-05-23 04:00:00 11.6 7 Norte 11 Norte 0 -- -- 80
2020-05-23 03:00:00 12.3 7 Norte 11 Noroeste 0 -- -- 80
2020-05-23 02:00:00 13.2 6 Norte 12 Noroeste 0 -- -- 77
2020-05-23 01:00:00 13.5 10 Norte 14 Norte 0 -- -- 75
2020-05-23 00:00:00 14.5 10 Norte 14 Norte 0 -- -- 71
2020-05-22 23:00:00 15.6 9 Norte 14 Norte 0 -- -- 67
2020-05-22 22:00:00 17.5 5 Norte 17 Sudoeste 0 -- -- 60
2020-05-22 21:00:00 22.2 6 Sudoeste 17 Sur 0 -- -- 44
2020-05-22 20:00:00 24.3 11 Sur 21 Sudoeste 0 -- -- 37
2020-05-22 19:00:00 26.6 10 Sudoeste 23 Sudoeste 0 -- -- 34
2020-05-22 18:00:00 26.6 12 Sur 25 Sur 0 -- -- 38
2020-05-22 17:00:00 26.8 13 Sur 31 Sur 0 -- -- 35
2020-05-22 16:00:00 26.2 8 Sudoeste 33 Sudoeste 0 -- -- 38
2020-05-22 15:00:00 25.2 11 Sudoeste 23 Sudeste 0 -- -- 46
2020-05-22 14:00:00 25.4 12 Sur 28 Sudeste 0 -- -- 40
2020-05-22 13:00:00 24.4 16 Sur 27 Sur 0 -- -- 40
2020-05-22 12:00:00 23.7 14 Sudeste 20 Sudeste 0 -- -- 37
2020-05-22 11:00:00 23.3 9 Sudeste 14 Sudeste 0 -- -- 42
2020-05-22 10:00:00 22.7 3 Sudeste 6 Sudeste 0 -- -- 44
2020-05-22 09:00:00 18 5 Norte 11 Norte 0 -- -- 64
2020-05-22 08:00:00 13.2 5 Norte 12 Norte 0 -- -- 72
2020-05-22 07:00:00 9.8 9 Norte 13 Norte 0 -- -- 77
2020-05-22 06:00:00 10.4 12 Norte 16 Norte 0 -- -- 75
2020-05-22 05:00:00 10.2 9 Norte 14 Norte 0 -- -- 75
2020-05-22 04:00:00 10.8 13 Norte 16 Norte 0 -- -- 70
2020-05-22 03:00:00 11.3 8 Norte 16 Noroeste 0 -- -- 70
2020-05-22 02:00:00 11.4 9 Norte 15 Noroeste 0 -- -- 70
2020-05-22 01:00:00 11.7 8 Norte 17 Norte 0 -- -- 72
2020-05-22 00:00:00 12.4 10 Norte 15 Norte 0 -- -- 72
2020-05-21 23:00:00 13.5 10 Norte 17 Norte 0 -- -- 70
2020-05-21 22:00:00 15.8 10 Norte 16 Norte 0 -- -- 65
2020-05-21 21:00:00 19.5 3 Norte 22 Este 0 -- -- 55
2020-05-21 20:00:00 21.6 13 Nordeste 25 Nordeste 0 -- -- 47
2020-05-21 19:00:00 22.9 12 Nordeste 22 Nordeste 0 -- -- 46
2020-05-21 18:00:00 26.5 9 Sudoeste 29 Sudoeste 0 -- -- 33
2020-05-21 17:00:00 26.2 9 Sur 26 Sur 0 -- -- 31
2020-05-21 16:00:00 25.5 11 Sur 29 Sur 0 -- -- 31
2020-05-21 15:00:00 24 16 Sudeste 30 Sudeste 0 -- -- 35
2020-05-21 14:00:00 23.6 13 Sudeste 22 Sudeste 0 -- -- 33
2020-05-21 13:00:00 22.7 15 Sudeste 26 Sudeste 0 -- -- 40
2020-05-21 12:00:00 21.8 8 Sudeste 17 Sudeste 0 -- -- 39
2020-05-21 11:00:00 21.2 7 Sudeste 13 Sur 0 -- -- 42
2020-05-21 10:00:00 21 3 Este 13 Nordeste 0 -- -- 40
2020-05-21 09:00:00 17.7 9 Norte 17 Norte 0 -- -- 47
2020-05-21 08:00:00 12.6 10 Norte 18 Norte 0 -- -- 62
2020-05-21 07:00:00 9.5 14 Noroeste 20 Norte 0 -- -- 65
2020-05-21 06:00:00 9.3 6 Noroeste 21 Norte 0 -- -- 62
2020-05-21 05:00:00 9.3 14 Noroeste 20 Noroeste 0 -- -- 61
2020-05-21 04:00:00 10.3 13 Norte 22 Norte 0 -- -- 55
2020-05-21 03:00:00 10.9 9 Norte 17 Norte 0 -- -- 48
2020-05-21 02:00:00 11.5 5 Norte 24 Norte 0 -- -- 55
2020-05-21 01:00:00 13.9 18 Norte 29 Norte 0 -- -- 57
2020-05-21 00:00:00 14.4 17 Norte 30 Norte 0 -- -- 57
2020-05-20 23:00:00 15.1 16 Norte 24 Norte 0 -- -- 59
2020-05-20 22:00:00 15.7 14 Norte 21 Norte 0 -- -- 55
2020-05-20 21:00:00 17.2 12 Norte 20 Noroeste 0 -- -- 45
2020-05-20 20:00:00 20 17 Norte 27 Norte 0 -- -- 39
2020-05-20 19:00:00 22 14 Norte 26 Noroeste 0 -- -- 33
2020-05-20 18:00:00 22.9 15 Norte 24 Norte 0 -- -- 31
2020-05-20 17:00:00 23.1 16 Norte 25 Norte 0 -- -- 35
2020-05-20 16:00:00 23.1 13 Norte 27 Noroeste 0 -- -- 29
2020-05-20 15:00:00 22.7 14 Norte 26 Norte 0 -- -- 28
2020-05-20 14:00:00 22.3 14 Norte 24 Norte 0 -- -- 29
2020-05-20 13:00:00 22.2 7 Norte 24 Norte 0 -- -- 35
2020-05-20 12:00:00 21.1 10 Norte 19 Norte 0 -- -- 30
2020-05-20 11:00:00 20.3 7 Norte 19 Norte 0 -- -- 31
2020-05-20 10:00:00 18.9 8 Norte 20 Oeste 0 -- -- 29
2020-05-20 09:00:00 17.2 11 Noroeste 22 Norte 0 -- -- 37
2020-05-20 08:00:00 13.6 14 Norte 24 Norte 0 -- -- 43
2020-05-20 07:00:00 10.5 14 Noroeste 22 Norte 0 -- -- 50
2020-05-20 06:00:00 11.4 13 Norte 26 Noroeste 0 -- -- 47
2020-05-20 05:00:00 12.2 10 Noroeste 26 Noroeste 0 -- -- 50
2020-05-20 04:00:00 12.1 17 Noroeste 30 Norte 0 -- -- 56
2020-05-20 03:00:00 12.1 17 Noroeste 31 Noroeste 0 -- -- 58
2020-05-20 02:00:00 12 17 Norte 33 Norte 0 -- -- 59
2020-05-20 01:00:00 11 18 Noroeste 30 Norte 0 -- -- 72
2020-05-20 00:00:00 12.5 16 Noroeste 31 Norte 0 -- -- 67
2020-05-19 23:00:00 12.8 13 Norte 23 Norte 0 -- -- 65
2020-05-19 22:00:00 13.2 4 Noroeste 31 Norte 0 -- -- 64
2020-05-19 21:00:00 15.3 17 Norte 33 Norte 0 -- -- 58
2020-05-19 20:00:00 17.3 17 Norte 40 Norte 0 -- -- 53
2020-05-19 19:00:00 18.9 22 Norte 37 Norte 0 -- -- 45
2020-05-19 18:00:00 20.6 19 Norte 35 Norte 0 -- -- 44
2020-05-19 17:00:00 20.9 21 Noroeste 33 Noroeste 0 -- -- 37
2020-05-19 16:00:00 20.6 21 Norte 35 Norte 0 -- -- 38
2020-05-19 15:00:00 20.5 18 Norte 30 Norte 0 -- -- 46
2020-05-19 14:00:00 20 15 Norte 29 Norte 0 -- -- 41
2020-05-19 13:00:00 18.7 17 Norte 32 Norte 0 -- -- 46
2020-05-19 12:00:00 18.2 15 Norte 33 Norte 0 -- -- 48
2020-05-19 11:00:00 17.4 13 Norte 39 Norte 0 -- -- 45
2020-05-19 10:00:00 15.4 23 Norte 38 Norte 0 -- -- 48
2020-05-19 09:00:00 14.6 15 Noroeste 23 Noroeste 0 -- -- 51
2020-05-19 08:00:00 11.6 5 Noroeste 15 Oeste 0 -- -- 59
2020-05-19 07:00:00 9.8 10 Oeste 23 Noroeste 0 -- -- 61
2020-05-19 06:00:00 10 15 Noroeste 28 Noroeste 0 -- -- 62
2020-05-19 05:00:00 10 17 Noroeste 31 Noroeste 0 -- -- 63
2020-05-19 04:00:00 9.8 18 Noroeste 40 Noroeste 0 -- -- 63
2020-05-19 03:00:00 9.4 27 Norte 43 Noroeste 0 -- -- 67
2020-05-19 02:00:00 9.2 33 Norte 49 Noroeste 0 -- -- 70
2020-05-19 01:00:00 9 21 Noroeste 44 Norte 0 -- -- 72
2020-05-19 00:00:00 10.1 21 Norte 40 Norte 0 -- -- 67
2020-05-18 23:00:00 10.7 12 Norte 30 Norte 0 -- -- 67
2020-05-18 22:00:00 11.8 20 Norte 42 Norte 0 -- -- 66
2020-05-18 21:00:00 13 21 Norte 39 Norte 0 -- -- 62
2020-05-18 20:00:00 15 24 Norte 43 Norte 0 -- -- 57
2020-05-18 19:00:00 16.6 23 Norte 41 Norte 0 -- -- 51
2020-05-18 18:00:00 17.6 20 Norte 43 Norte 0 -- -- 49
2020-05-18 17:00:00 18.1 20 Norte 38 Noroeste 0 -- -- 49
2020-05-18 16:00:00 18.2 19 Norte 33 Noroeste 0 -- -- 45
2020-05-18 15:00:00 17.9 18 Norte 33 Noroeste 0 -- -- 41
2020-05-18 14:00:00 18.1 16 Norte 32 Nordeste 0 -- -- 43
2020-05-18 13:00:00 17.8 13 Norte 31 Nordeste 0 -- -- 45
2020-05-18 12:00:00 16.7 21 Norte 35 Nordeste 0 -- -- 43
2020-05-18 11:00:00 16.1 15 Norte 36 Noroeste 0 -- -- 44
2020-05-18 10:00:00 14.7 15 Norte 37 Norte 0 -- -- 42
2020-05-18 09:00:00 12.6 23 Norte 37 Noroeste 0 -- -- 43
2020-05-18 08:00:00 9.9 21 Norte 31 Norte 0 -- -- 44
2020-05-18 07:00:00 8.1 17 Norte 31 Noroeste 0 -- -- 50
2020-05-18 06:00:00 8 18 Noroeste 31 Noroeste 0 -- -- 47
2020-05-18 05:00:00 7 13 Noroeste 22 Noroeste 0 -- -- 48
2020-05-18 04:00:00 7.9 10 Noroeste 22 Noroeste 0 -- -- 42
2020-05-18 03:00:00 8.5 16 Oeste 25 Noroeste 0 -- -- 38
2020-05-18 02:00:00 8.3 13 Noroeste 21 Norte 0 -- -- 46
2020-05-18 01:00:00 8.6 16 Norte 27 Norte 0 -- -- 58
2020-05-18 00:00:00 8.8 19 Norte 30 Norte 0 -- -- 68
2020-05-17 23:00:00 9.1 21 Norte 37 Norte 0 -- -- 74
2020-05-17 22:00:00 9.7 17 Norte 30 Norte 0 -- -- 72
2020-05-17 21:00:00 11 20 Norte 37 Norte 0 -- -- 64
2020-05-17 20:00:00 13.3 19 Norte 36 Norte 0 -- -- 58
2020-05-17 19:00:00 14.8 22 Norte 35 Norte 0 -- -- 54
2020-05-17 18:00:00 15.5 20 Norte 30 Norte 0 -- -- 51
2020-05-17 17:00:00 15.8 17 Norte 29 Noroeste 0 -- -- 47
2020-05-17 16:00:00 15.7 15 Noroeste 27 Noroeste 0 -- -- 53
2020-05-17 15:00:00 14.4 15 Norte 30 Norte 0 -- -- 52
2020-05-17 14:00:00 13.4 15 Norte 31 Noroeste 0 -- -- 55
2020-05-17 13:00:00 12 16 Noroeste 29 Noroeste 0 -- -- 64
2020-05-17 12:00:00 11 15 Norte 28 Noroeste 0 -- -- 61
2020-05-17 11:00:00 9.8 15 Norte 28 Noroeste 0 -- -- 61
2020-05-17 10:00:00 8.4 17 Norte 27 Norte 0 -- -- 70
2020-05-17 09:00:00 7.6 15 Noroeste 30 Noroeste 0 -- -- 76
2020-05-17 08:00:00 5.4 16 Noroeste 28 Noroeste 0 -- -- 83
2020-05-17 07:00:00 4.6 13 Noroeste 27 Norte 0 -- -- 85
2020-05-17 06:00:00 4.9 15 Norte 28 Norte 0 -- -- 83
2020-05-17 05:00:00 5.2 14 Norte 27 Norte 0 -- -- 84
2020-05-17 04:00:00 5.6 20 Norte 31 Norte 0 -- -- 84
2020-05-17 03:00:00 5.7 17 Norte 30 Noroeste 0 -- -- 85
2020-05-17 02:00:00 5.6 18 Norte 33 Norte 0 -- -- 85
2020-05-17 01:00:00 5.7 19 Norte 30 Norte 0 -- -- 84
2020-05-17 00:00:00 6.3 17 Norte 35 Norte 0 -- -- 83
2020-05-16 23:00:00 6.3 17 Norte 33 Norte 0 -- -- 88
2020-05-16 22:00:00 6.8 18 Norte 31 Norte 0 -- -- 85
2020-05-16 21:00:00 7.4 17 Norte 36 Norte 0 -- -- 82
2020-05-16 20:00:00 7.5 21 Norte 34 Norte 0 -- -- 85
2020-05-16 19:00:00 7.8 25 Norte 37 Norte 0 -- -- 85
2020-05-16 18:00:00 8.4 23 Norte 41 Norte 0 -- -- 84
2020-05-16 17:00:00 7.5 18 Norte 33 Norte 0 -- -- 90
2020-05-16 16:00:00 7.3 21 Norte 36 Noroeste 0 -- -- 92
2020-05-16 15:00:00 7.4 19 Norte 32 Noroeste 0 -- -- 91
2020-05-16 14:00:00 6.7 18 Noroeste 29 Norte 0 -- -- 92
2020-05-16 13:00:00 6.5 10 Norte 30 Noroeste 0 -- -- 91
2020-05-16 12:00:00 6.2 13 Norte 32 Norte 0 -- -- 93
2020-05-16 11:00:00 5.8 21 Norte 35 Norte 0 -- -- 92
2020-05-16 10:00:00 5.6 20 Norte 33 Norte 0 -- -- 92
2020-05-16 09:00:00 5.3 21 Norte 30 Norte 0 -- -- 91
2020-05-16 08:00:00 4.9 18 Norte 30 Norte 0 -- -- 91
2020-05-16 07:00:00 4.5 17 Norte 32 Norte 0 -- -- 92
2020-05-16 06:00:00 4.4 14 Norte 29 Norte 0 -- -- 92
2020-05-16 05:00:00 4.4 14 Norte 23 Norte 0 -- -- 92
2020-05-16 04:00:00 4.2 12 Norte 26 Norte 0 -- -- 93
2020-05-16 03:00:00 4.2 15 Norte 29 Norte 0 -- -- 94
2020-05-16 02:00:00 4.5 15 Norte 30 Norte 0 -- -- 93
2020-05-16 01:00:00 4.9 18 Norte 29 Norte 0 -- -- 92
2020-05-16 00:00:00 5.4 20 Norte 35 Norte 0 -- -- 91
2020-05-15 23:00:00 5.6 19 Norte 30 Norte 0 -- -- 91
2020-05-15 22:00:00 5.9 12 Norte 28 Norte 0 -- -- 91
2020-05-15 21:00:00 6.3 14 Norte 28 Norte 0 -- -- 92
2020-05-15 20:00:00 6.3 20 Norte 37 Norte 0 -- -- 95
2020-05-15 19:00:00 6.4 22 Norte 41 Norte 0 -- -- 94
2020-05-15 18:00:00 6.9 20 Noroeste 35 Noroeste 0 -- -- 92
2020-05-15 17:00:00 7.4 22 Norte 35 Noroeste 0 -- -- 91
2020-05-15 16:00:00 8.1 15 Norte 28 Norte 0 -- -- 89
2020-05-15 15:00:00 9.1 15 Noroeste 28 Noroeste 0 -- -- 84
2020-05-15 14:00:00 9 15 Norte 27 Norte 0 -- -- 86
2020-05-15 13:00:00 7.9 10 Norte 23 Norte 0 -- -- 88
2020-05-15 12:00:00 7.7 15 Norte 26 Norte 0 -- -- 90
2020-05-15 11:00:00 7 14 Norte 27 Noroeste 0 -- -- 90
2020-05-15 10:00:00 7.1 10 Norte 23 Norte 0 -- -- 90
2020-05-15 09:00:00 6.6 11 Norte 28 Norte 0 -- -- 89
2020-05-15 08:00:00 6.1 12 Norte 21 Norte 0 -- -- 89
2020-05-15 07:00:00 6.1 6 Norte 22 Norte 0 -- -- 89
2020-05-15 06:00:00 5.9 15 Norte 28 Norte 0 -- -- 89
2020-05-15 05:00:00 5.9 13 Norte 26 Norte 0 -- -- 90
2020-05-15 04:00:00 5.9 15 Norte 26 Norte 0 -- -- 91
2020-05-15 03:00:00 5.9 11 Norte 23 Norte 0 -- -- 91
2020-05-15 02:00:00 6.2 14 Norte 27 Norte 0 -- -- 92
2020-05-15 01:00:00 6.4 10 Norte 27 Noroeste 0 -- -- 92
2020-05-15 00:00:00 6.7 13 Norte 28 Noroeste 0 -- -- 92
2020-05-14 23:00:00 6.9 14 Norte 23 Norte 0 -- -- 92
2020-05-14 22:00:00 7.7 9 Norte 17 Norte 0 -- -- 91
2020-05-14 21:00:00 8 6 Norte 27 Noroeste 0 -- -- 92
2020-05-14 20:00:00 8.2 15 Noroeste 24 Noroeste 0.4 -- -- 93
2020-05-14 19:00:00 8.2 0 Calma 5 Norte 3.6 -- -- 91
2020-05-14 18:00:00 8.9 3 Norte 9 Norte 1.4 -- -- 88
2020-05-14 17:00:00 9.4 5 Sudeste 16 Oeste 0.4 -- -- 90
2020-05-14 16:00:00 8.3 12 Oeste 19 Sudoeste 3.8 -- -- 91
2020-05-14 15:00:00 11.6 7 Sudeste 14 Sudeste 0 -- -- 77
2020-05-14 14:00:00 10.3 7 Nordeste 20 Este 0 -- -- 84
2020-05-14 13:00:00 10.3 10 Nordeste 22 Nordeste 0 -- -- 81
2020-05-14 12:00:00 11 6 Nordeste 13 Noroeste 0 -- -- 78
2020-05-14 11:00:00 10 6 Norte 20 Este 0 -- -- 88
2020-05-14 10:00:00 9.6 8 Este 15 Nordeste 0 -- -- 88
2020-05-14 09:00:00 9 6 Noroeste 10 Norte 0 -- -- 97
2020-05-14 08:00:00 6.8 6 Norte 10 Norte 0 -- -- 97
2020-05-14 07:00:00 6.3 3 Norte 9 Norte 0 -- -- 96
2020-05-14 06:00:00 6.8 3 Norte 9 Norte 0 -- -- 96
2020-05-14 05:00:00 6.1 6 Norte 9 Norte 0 -- -- 96
2020-05-14 04:00:00 5.5 5 Norte 11 Norte 0 -- -- 96
2020-05-14 03:00:00 5.5 6 Norte 12 Norte 0 -- -- 95
2020-05-14 02:00:00 5.9 5 Noroeste 10 Norte 0 -- -- 95
2020-05-14 01:00:00 6.8 5 Noroeste 10 Norte 0 -- -- 94
2020-05-14 00:00:00 8.2 6 Norte 13 Noroeste 0 -- -- 93
2020-05-13 23:00:00 8.4 8 Norte 19 Norte 0.6 -- -- 92
2020-05-13 22:00:00 8.8 2 Noroeste 18 Noroeste 5 -- -- 91
2020-05-13 21:00:00 10.1 7 Noroeste 13 Este 3 -- -- 89
2020-05-13 20:00:00 11.9 8 Este 14 Este 0 -- -- 76
2020-05-13 19:00:00 13.1 2 Noroeste 5 Nordeste 0 -- -- 71
2020-05-13 18:00:00 12.7 3 Norte 13 Norte 0 -- -- 69
2020-05-13 17:00:00 11.1 6 Nordeste 12 Norte 0.2 -- -- 82
2020-05-13 16:00:00 11 5 Norte 10 Sudeste 0.6 -- -- 83
2020-05-13 15:00:00 10.9 6 Sudeste 17 Sudeste 0 -- -- 76
2020-05-13 14:00:00 10.5 7 Sudeste 17 Noroeste 0 -- -- 77
2020-05-13 13:00:00 10.6 9 Norte 18 Oeste 0 -- -- 78
2020-05-13 12:00:00 10 3 Sudeste 21 Noroeste 0 -- -- 82
2020-05-13 11:00:00 9.4 7 Sur 12 Sur 0 -- -- 88
2020-05-13 10:00:00 8.3 5 Sur 9 Sur 0 -- -- 92
2020-05-13 09:00:00 7.1 3 Sudeste 9 Sudeste 0 -- -- 95
2020-05-13 08:00:00 6.3 4 Sudeste 9 Sudeste 0 -- -- 96
2020-05-13 07:00:00 5.9 2 Sudeste 6 Este 0 -- -- 95
2020-05-13 06:00:00 5.9 4 Este 5 Este 0 -- -- 95
2020-05-13 05:00:00 6.2 3 Sudeste 6 Sudeste 0 -- -- 94
2020-05-13 04:00:00 6.5 0 Calma 6 Noroeste 0.2 -- -- 94
2020-05-13 03:00:00 6.4 0 Calma 10 Oeste 0.2 -- -- 93
2020-05-13 02:00:00 6.5 3 Oeste 15 Oeste 0.4 -- -- 93
2020-05-13 01:00:00 6.7 8 Oeste 13 Oeste 1 -- -- 92
2020-05-13 00:00:00 7.4 0 Calma 4 Sudeste 1.6 -- -- 94
2020-05-12 23:00:00 7.6 2 Este 4 Sudeste 3.2 -- -- 92
2020-05-12 22:00:00 8 0 Calma 4 Sur 2.4 -- -- 91
2020-05-12 21:00:00 8.4 2 Sur 3 Sur 0.6 -- -- 89
2020-05-12 20:00:00 8.5 3 Noroeste 7 Noroeste 0.2 -- -- 90
2020-05-12 19:00:00 8.7 3 Sur 20 Sur 1.4 -- -- 90
2020-05-12 18:00:00 9.6 11 Sur 39 Sur 0.4 -- -- 86
2020-05-12 17:00:00 12.4 17 Sudeste 27 Este 0 -- -- 73
2020-05-12 16:00:00 13.2 12 Sur 23 Sudeste 0 -- -- 69
2020-05-12 15:00:00 14.2 13 Sur 22 Sur 0 -- -- 68
2020-05-12 14:00:00 13.8 12 Sur 19 Sudoeste 0 -- -- 73
2020-05-12 13:00:00 13.9 9 Sur 20 Sudeste 0 -- -- 71
2020-05-12 12:00:00 12.7 4 Este 26 Sur 0 -- -- 80
2020-05-12 11:00:00 11.2 8 Oeste 14 Norte 0 -- -- 94
2020-05-12 10:00:00 8.3 0 Calma 8 Noroeste 0 -- -- 98
2020-05-12 09:00:00 6.1 0 Calma 3 Norte 0 -- -- 97
2020-05-12 08:00:00 5 0 Calma 10 Sur 0 -- -- 96
2020-05-12 07:00:00 4.1 3 Sudoeste 19 Norte 0 -- -- 94
2020-05-12 06:00:00 4 6 Norte 13 Norte 0.2 -- -- 95
2020-05-12 05:00:00 4.1 6 Norte 12 Norte 0 -- -- 94
2020-05-12 04:00:00 4.5 6 Norte 10 Norte 0 -- -- 94
2020-05-12 03:00:00 5.7 5 Norte 9 Norte 0 -- -- 92
2020-05-12 02:00:00 6.6 7 Noroeste 12 Norte 0 -- -- 93
2020-05-12 01:00:00 7.2 6 Norte 9 Norte 0 -- -- 91
2020-05-12 00:00:00 8 4 Norte 22 Norte 0 -- -- 88
2020-05-11 23:00:00 9.4 13 Norte 22 Noroeste 1.4 -- -- 86
2020-05-11 22:00:00 11.1 6 Noroeste 11 Noroeste 0 -- -- 78
2020-05-11 21:00:00 12 4 Noroeste 16 Noroeste 0 -- -- 74
2020-05-11 20:00:00 13.4 10 Oeste 23 Sudoeste 0 -- -- 66
2020-05-11 19:00:00 13.6 8 Sudoeste 17 Oeste 0.2 -- -- 64
2020-05-11 18:00:00 13.6 11 Noroeste 34 Oeste 0 -- -- 58
2020-05-11 17:00:00 14.7 8 Noroeste -- -- -- -- -- 53
2020-05-11 16:00:00 -- -- -- -- -- -- -- -- --
2020-05-11 15:00:00 -- -- -- -- -- -- -- -- --
2020-05-11 14:00:00 -- -- -- -- -- -- -- -- --
2020-05-11 13:00:00 -- -- -- -- -- -- -- -- --
2020-05-11 12:00:00 -- -- -- -- -- -- -- -- --
2020-05-11 11:00:00 -- -- -- -- -- -- -- -- --
2020-05-11 10:00:00 -- -- -- -- -- -- -- -- --
2020-05-11 09:00:00 -- -- -- -- -- -- -- -- --
2020-05-11 08:00:00 -- -- -- -- -- -- -- -- --
2020-05-11 07:00:00 -- -- -- -- -- -- -- -- --
2020-05-11 06:00:00 -- -- -- -- -- -- -- -- --
2020-05-11 05:00:00 -- -- -- -- -- -- -- -- --
2020-05-11 04:00:00 -- -- -- -- -- -- -- -- --
2020-05-11 03:00:00 -- -- -- -- -- -- -- -- --
2020-05-11 02:00:00 -- -- -- -- -- -- -- -- --
2020-05-11 01:00:00 -- -- -- -- -- -- -- -- --
2020-05-11 00:00:00 -- -- -- -- -- -- -- -- --
2020-05-10 23:00:00 -- -- -- -- -- -- -- -- --
2020-05-10 22:00:00 -- -- -- -- -- -- -- -- --
2020-05-10 21:00:00 -- -- -- -- -- -- -- -- --
2020-05-10 20:00:00 -- -- -- -- -- -- -- -- --
2020-05-10 19:00:00 -- -- -- -- -- -- -- -- --
2020-05-10 18:00:00 -- -- -- -- -- -- -- -- --
2020-05-10 17:00:00 -- -- -- -- -- -- -- -- --
2020-05-10 16:00:00 -- -- -- -- -- -- -- -- --
2020-05-10 15:00:00 -- -- -- -- -- -- -- -- --
2020-05-10 14:00:00 -- -- -- -- -- -- -- -- --
2020-05-10 13:00:00 -- -- -- -- -- -- -- -- --
2020-05-10 12:00:00 -- -- -- -- -- -- -- -- --
2020-05-10 11:00:00 -- -- -- -- -- -- -- -- --
2020-05-10 10:00:00 -- -- -- -- -- -- -- -- --
2020-05-10 09:00:00 -- -- -- -- -- -- -- -- --
2020-05-10 08:00:00 -- -- -- -- -- -- -- -- --
2020-05-10 07:00:00 -- -- -- -- -- -- -- -- --
2020-05-10 06:00:00 -- -- -- -- -- -- -- -- --
2020-05-10 05:00:00 -- -- -- -- -- -- -- -- --
2020-05-10 04:00:00 -- -- -- -- -- -- -- -- --
2020-05-10 03:00:00 -- -- -- -- -- -- -- -- --
2020-05-10 02:00:00 -- -- -- -- -- -- -- -- --
2020-05-10 01:00:00 -- -- -- -- -- -- -- -- --
2020-05-10 00:00:00 -- -- -- -- -- -- -- -- --
2020-05-09 23:00:00 -- -- -- -- -- -- -- -- --
2020-05-09 22:00:00 -- -- -- -- -- -- -- -- --
2020-05-09 21:00:00 -- -- -- -- -- -- -- -- --
2020-05-09 20:00:00 -- -- -- -- -- -- -- -- --
2020-05-09 19:00:00 -- -- -- -- -- -- -- -- --
2020-05-09 18:00:00 -- -- -- -- -- -- -- -- --
2020-05-09 17:00:00 -- -- -- -- -- -- -- -- --
2020-05-09 16:00:00 -- -- -- -- -- -- -- -- --
2020-05-09 15:00:00 -- -- -- -- -- -- -- -- --
2020-05-09 14:00:00 -- -- -- -- -- -- -- -- --
2020-05-09 13:00:00 -- -- -- -- -- -- -- -- --
2020-05-09 12:00:00 -- -- -- -- -- -- -- -- --
2020-05-09 11:00:00 -- -- -- -- -- -- -- -- --
2020-05-09 10:00:00 -- -- -- -- -- -- -- -- --
2020-05-09 09:00:00 -- -- -- -- -- -- -- -- --
2020-05-09 08:00:00 -- -- -- -- -- -- -- -- --
2020-05-09 07:00:00 -- -- -- -- -- -- -- -- --
2020-05-09 06:00:00 -- -- -- -- -- -- -- -- --
2020-05-09 05:00:00 -- -- -- -- -- -- -- -- --
2020-05-09 04:00:00 -- -- -- -- -- -- -- -- --
2020-05-09 03:00:00 -- -- -- -- -- -- -- -- --
2020-05-09 02:00:00 -- -- -- -- -- -- -- -- --
2020-05-09 01:00:00 -- -- -- -- -- -- -- -- --
2020-05-09 00:00:00 -- -- -- -- -- -- -- -- --
2020-05-08 23:00:00 -- -- -- -- -- -- -- -- --
2020-05-08 22:00:00 -- -- -- -- -- -- -- -- --
2020-05-08 21:00:00 -- -- -- -- -- -- -- -- --
2020-05-08 20:00:00 -- -- -- -- -- -- -- -- --
2020-05-08 19:00:00 -- -- -- -- -- -- -- -- --
2020-05-08 18:00:00 -- -- -- -- -- -- -- -- --
2020-05-08 17:00:00 -- -- -- -- -- -- -- -- --
2020-05-08 16:00:00 -- -- -- -- -- -- -- -- --
2020-05-08 15:00:00 -- -- -- -- -- -- -- -- --
2020-05-08 14:00:00 -- -- -- -- -- -- -- -- --
2020-05-08 13:00:00 -- -- -- -- -- -- -- -- --
2020-05-08 12:00:00 -- -- -- -- -- -- -- -- --
2020-05-08 11:00:00 -- -- -- -- -- -- -- -- --
2020-05-08 10:00:00 -- -- -- -- -- -- -- -- --
2020-05-08 09:00:00 13.6 6 Sudoeste 9 Sudoeste 0 -- -- 74
2020-05-08 08:00:00 9.9 4 Norte 10 Este 0 -- -- 85
2020-05-08 07:00:00 8.1 4 Sudeste 9 Sudeste 0 -- -- 88
2020-05-08 06:00:00 7.7 0 Calma 5 Sudeste 0 -- -- 88
2020-05-08 05:00:00 8.6 5 Norte 8 Norte 0 -- -- 89
2020-05-08 04:00:00 9.7 0 Calma 12 Sudoeste 0 -- -- 86
2020-05-08 03:00:00 10.3 2 Sudeste 5 Este 0 -- -- 89
2020-05-08 02:00:00 10.4 0 Calma 4 Oeste 0 -- -- 86
2020-05-08 01:00:00 11.3 3 Norte 6 Norte 0 -- -- 83
2020-05-08 00:00:00 13.6 4 Sur 20 Sudoeste 0 -- -- 78
2020-05-07 23:00:00 14.6 12 Sudoeste 18 Sudoeste 0 -- -- 74
2020-05-07 22:00:00 15.9 9 Sudoeste 16 Sudoeste 0 -- -- 69
2020-05-07 21:00:00 17.3 8 Sur 20 Sur 0 -- -- 67
2020-05-07 20:00:00 18.3 12 Sur 20 Sur 0 -- -- 64
2020-05-07 19:00:00 19.1 12 Sudeste 28 Sudeste 0 -- -- 63
2020-05-07 18:00:00 19.6 13 Sudeste 31 Sudeste 0 -- -- 62
2020-05-07 17:00:00 20.6 15 Sudeste 27 Sur 0 -- -- 56
2020-05-07 16:00:00 21.5 14 Sur 32 Sur 0 -- -- 53
2020-05-07 15:00:00 21.4 18 Sur 31 Sur 0 -- -- 52
2020-05-07 14:00:00 20.5 14 Sur 29 Sudeste 0 -- -- 51
2020-05-07 13:00:00 19.6 13 Sudeste 27 Sudeste 0 -- -- 55
2020-05-07 12:00:00 17.6 9 Sur 23 Sur 0 -- -- 63
2020-05-07 11:00:00 17.6 13 Sur 22 Sur 0 -- -- 57
2020-05-07 10:00:00 17.2 10 Sur 17 Sur 0 -- -- 53
2020-05-07 09:00:00 13.9 0 Calma 11 Norte 0 -- -- 66
2020-05-07 08:00:00 9.3 8 Norte 13 Norte 0 -- -- 82
2020-05-07 07:00:00 7.7 6 Norte 14 Nordeste 0 -- -- 86
2020-05-07 06:00:00 8.2 9 Norte 13 Norte 0 -- -- 87
2020-05-07 05:00:00 8.4 7 Norte 16 Norte 0 -- -- 87
2020-05-07 04:00:00 9.1 7 Norte 12 Noroeste 0 -- -- 85
2020-05-07 03:00:00 9.6 4 Noroeste 9 Norte 0 -- -- 83
2020-05-07 02:00:00 10.1 9 Noroeste 13 Noroeste 0 -- -- 83
2020-05-07 01:00:00 11.4 6 Norte 14 Norte 0 -- -- 76
2020-05-07 00:00:00 10.5 3 Noroeste 15 Norte 0 -- -- 68
2020-05-06 23:00:00 11.6 8 Norte 14 Noroeste 0 -- -- 64
2020-05-06 22:00:00 12.8 9 Norte 14 Noroeste 0 -- -- 61
2020-05-06 21:00:00 15.8 5 Norte 17 Nordeste 0 -- -- 51
2020-05-06 20:00:00 18.4 7 Sur 15 Sur 0 -- -- 42
2020-05-06 19:00:00 19.5 6 Sur 20 Sudeste 0 -- -- 38
2020-05-06 18:00:00 19.5 10 Sur 21 Sur 0 -- -- 46
2020-05-06 17:00:00 20.4 9 Sur 22 Sudeste 0 -- -- 44
2020-05-06 16:00:00 19.7 11 Sudeste 24 Oeste 0 -- -- 41
2020-05-06 15:00:00 19.3 8 Sur 21 Sudeste 0 -- -- 46
2020-05-06 14:00:00 18.4 8 Sudeste 21 Sudeste 0 -- -- 45
2020-05-06 13:00:00 18.6 10 Sur 22 Sur 0 -- -- 42
2020-05-06 12:00:00 17.5 8 Sur 14 Sur 0 -- -- 49
2020-05-06 11:00:00 16.4 6 Este 14 Este 0 -- -- 44
2020-05-06 10:00:00 16.1 4 Este 12 Norte 0 -- -- 46
2020-05-06 09:00:00 13.2 7 Norte 11 Norte 0 -- -- 56
2020-05-06 08:00:00 7.3 6 Norte 15 Norte 0 -- -- 74
2020-05-06 07:00:00 5.5 8 Norte 19 Norte 0 -- -- 77
2020-05-06 06:00:00 5.8 9 Norte 15 Norte 0 -- -- 76
2020-05-06 05:00:00 6.2 12 Norte 15 Norte 0 -- -- 77
2020-05-06 04:00:00 6.8 10 Norte 16 Norte 0 -- -- 75
2020-05-06 03:00:00 7.4 11 Norte 15 Norte 0 -- -- 76
2020-05-06 02:00:00 7.5 8 Norte 12 Noroeste 0 -- -- 78
2020-05-06 01:00:00 8.6 11 Norte 18 Noroeste 0 -- -- 74
2020-05-06 00:00:00 9.8 6 Norte 14 Norte 0 -- -- 74
2020-05-05 23:00:00 11.3 8 Norte 16 Noroeste 0 -- -- 70
2020-05-05 22:00:00 13.1 6 Noroeste 19 Noroeste 0 -- -- 65
2020-05-05 21:00:00 15.5 4 Nordeste 19 Este 0 -- -- 56
2020-05-05 20:00:00 18 10 Oeste 18 Oeste 0 -- -- 39
2020-05-05 19:00:00 19.4 13 Oeste 32 Oeste 0 -- -- 36
2020-05-05 18:00:00 21 10 Oeste 31 Noroeste 0 -- -- 38
2020-05-05 17:00:00 20.8 13 Sudoeste 31 Sur 0 -- -- 36
2020-05-05 16:00:00 20.4 13 Sudoeste 29 Sudoeste 0 -- -- 36
2020-05-05 15:00:00 20 10 Oeste 31 Sudoeste 0 -- -- 36
2020-05-05 14:00:00 19.3 14 Sudoeste 30 Sudoeste 0 -- -- 36
2020-05-05 13:00:00 17.9 13 Sudoeste 25 Sur 0 -- -- 45
2020-05-05 12:00:00 17.3 12 Oeste 25 Sudoeste 0 -- -- 50
2020-05-05 11:00:00 15.9 10 Sudoeste 24 Sudeste 0 -- -- 53
2020-05-05 10:00:00 14 6 Sudeste 12 Sudeste 0 -- -- 60
2020-05-05 09:00:00 11.5 4 Sudeste 8 Sudeste 0 -- -- 72
2020-05-05 08:00:00 6.7 5 Norte 12 Norte 0 -- -- 86
2020-05-05 07:00:00 5.6 4 Norte 11 Norte 0 -- -- 89
2020-05-05 06:00:00 6.4 9 Norte 11 Norte 0 -- -- 91
2020-05-05 05:00:00 7.2 7 Norte 9 Norte 0 -- -- 87
2020-05-05 04:00:00 9.3 3 Norte 7 Norte 0 -- -- 82
2020-05-05 03:00:00 10.8 0 Calma 9 Sudeste 0 -- -- 77
2020-05-05 02:00:00 12.7 3 Sudeste 16 Sudeste 0 -- -- 69
2020-05-05 01:00:00 13.6 4 Sur 10 Sudeste 0 -- -- 67
2020-05-05 00:00:00 16.1 10 Noroeste 18 Oeste 0 -- -- 58
2020-05-04 23:00:00 18.1 7 Oeste 44 Sur 0 -- -- 55
2020-05-04 22:00:00 19.2 19 Sudoeste 41 Sudoeste 0 -- -- 47
2020-05-04 21:00:00 18.1 10 Sudeste 21 Sur 0 -- -- 59
2020-05-04 20:00:00 20 13 Sur 32 Sur 0 -- -- 56
2020-05-04 19:00:00 21 16 Sur 34 Sur 0 -- -- 60
2020-05-04 18:00:00 21 12 Sur 35 Sur 0.2 -- -- 58
2020-05-04 17:00:00 22.3 18 Sur 30 Sur 0 -- -- 47
2020-05-04 16:00:00 22.5 14 Sur 25 Sudeste 0 -- -- 55
2020-05-04 15:00:00 23.1 6 Sudoeste 21 Sudeste 0 -- -- 46
2020-05-04 14:00:00 21.6 13 Sudeste 21 Sudeste 0 -- -- 48
2020-05-04 13:00:00 21.8 8 Sur 22 Sudeste 0 -- -- 51
2020-05-04 12:00:00 21.9 12 Sudeste 24 Sudeste 0 -- -- 51
2020-05-04 11:00:00 20.2 12 Sur 18 Sur 0 -- -- 57
2020-05-04 10:00:00 19.6 6 Sur 10 Sur 0 -- -- 59
2020-05-04 09:00:00 14.8 5 Norte 12 Norte 0 -- -- 71
2020-05-04 08:00:00 10.3 8 Norte 16 Norte 0 -- -- 82
2020-05-04 07:00:00 8.7 10 Norte 15 Norte 0 -- -- 85
2020-05-04 06:00:00 7.9 8 Norte 12 Norte 0 -- -- 88
2020-05-04 05:00:00 8 9 Norte 13 Norte 0 -- -- 86
2020-05-04 04:00:00 9 8 Norte 13 Norte 0 -- -- 84
2020-05-04 03:00:00 9.7 7 Norte 13 Norte 0 -- -- 81
2020-05-04 02:00:00 10.2 4 Norte 16 Norte 0 -- -- 80
2020-05-04 01:00:00 9.9 9 Norte 13 Norte 0 -- -- 80
2020-05-04 00:00:00 10.4 9 Norte 12 Norte 0 -- -- 78
2020-05-03 23:00:00 12.2 8 Norte 12 Norte 0 -- -- 70
2020-05-03 22:00:00 14 8 Norte 14 Norte 0 -- -- 67
2020-05-03 21:00:00 18.7 4 Sur 18 Sur 0 -- -- 48
2020-05-03 20:00:00 21.5 11 Sur 21 Sur 0 -- -- 41
2020-05-03 19:00:00 22.8 13 Sur 29 Sur 0 -- -- 36
2020-05-03 18:00:00 23.9 16 Sur 29 Sudoeste 0 -- -- 33
2020-05-03 17:00:00 23.8 13 Sur 30 Sudoeste 0 -- -- 38
2020-05-03 16:00:00 23.4 14 Sur 28 Sudoeste 0 -- -- 36
2020-05-03 15:00:00 22.3 12 Sudoeste 31 Sur 0 -- -- 49
2020-05-03 14:00:00 20.9 18 Sur 34 Sudoeste 0 -- -- 54
2020-05-03 13:00:00 19.4 17 Sur 29 Sur 0 -- -- 59
2020-05-03 12:00:00 17.6 13 Sudeste 21 Este 0 -- -- 63
2020-05-03 11:00:00 16.2 9 Sudeste 15 Sudeste 0 -- -- 66
2020-05-03 10:00:00 15.1 5 Sudeste 12 Sudeste 0 -- -- 69
2020-05-03 09:00:00 11.1 4 Norte 10 Norte 0 -- -- 78
2020-05-03 08:00:00 7.2 7 Norte 12 Norte 0 -- -- 89
2020-05-03 07:00:00 5.2 5 Norte 13 Norte 0 -- -- 92
2020-05-03 06:00:00 5.5 6 Norte 11 Nordeste 0 -- -- 91
2020-05-03 05:00:00 5.5 8 Norte 13 Norte 0 -- -- 89
2020-05-03 04:00:00 5.9 7 Norte 12 Norte 0 -- -- 87
2020-05-03 03:00:00 6.8 8 Norte 14 Norte 0 -- -- 88
2020-05-03 02:00:00 7.9 10 Norte 13 Norte 0 -- -- 88
2020-05-03 01:00:00 8.9 2 Este 15 Noroeste 0 -- -- 85
2020-05-03 00:00:00 9.4 10 Noroeste 18 Norte 0 -- -- 86
2020-05-02 23:00:00 10.5 8 Noroeste 15 Norte 0 -- -- 80
2020-05-02 22:00:00 12.6 10 Noroeste 19 Noroeste 0 -- -- 75
2020-05-02 21:00:00 15.1 9 Noroeste 18 Norte 0 -- -- 66
2020-05-02 20:00:00 18.3 13 Oeste 26 Oeste 0 -- -- 40
2020-05-02 19:00:00 20.5 14 Oeste 32 Noroeste 0 -- -- 34
2020-05-02 18:00:00 21.7 12 Oeste 37 Oeste 0 -- -- 34
2020-05-02 17:00:00 21.3 15 Oeste 35 Sudoeste 0 -- -- 42
2020-05-02 16:00:00 20.7 22 Oeste 42 Sudoeste 0 -- -- 42
2020-05-02 15:00:00 20.4 18 Sudoeste 37 Oeste 0 -- -- 50
2020-05-02 14:00:00 19.4 18 Sudoeste 33 Sudoeste 0 -- -- 55
2020-05-02 13:00:00 17.6 22 Oeste 37 Oeste 0 -- -- 58
2020-05-02 12:00:00 17.7 13 Sudoeste 25 Sudoeste 0 -- -- 58
2020-05-02 11:00:00 16.3 9 Sudoeste 28 Sudoeste 0 -- -- 64
2020-05-02 10:00:00 14.2 12 Sudoeste 25 Oeste 0 -- -- 71
2020-05-02 09:00:00 12.2 10 Sudoeste 20 Sudeste 0 -- -- 81
2020-05-02 08:00:00 9.9 7 Sudeste 17 Sudeste 0 -- -- 85
2020-05-02 07:00:00 9.5 0 Calma 20 Oeste 0 -- -- 85
2020-05-02 06:00:00 10.4 13 Oeste 31 Oeste 0 -- -- 81
2020-05-02 05:00:00 10.6 21 Oeste 30 Noroeste 0 -- -- 82
2020-05-02 04:00:00 11.1 14 Oeste 34 Oeste 0 -- -- 79
2020-05-02 03:00:00 12.2 19 Oeste 35 Oeste 0 -- -- 76
2020-05-02 02:00:00 12.4 14 Oeste 30 Sudoeste 0 -- -- 75
2020-05-02 01:00:00 12.7 11 Sudoeste 24 Sudoeste 0 -- -- 74
2020-05-02 00:00:00 13.1 7 Oeste 21 Sudoeste 0 -- -- 75
2020-05-01 23:00:00 13 9 Sudoeste 18 Sudoeste 0 -- -- 76
2020-05-01 22:00:00 13.1 6 Sudoeste 22 Sudoeste 0 -- -- 77
2020-05-01 21:00:00 14.2 9 Sudoeste 24 Oeste 0 -- -- 72
2020-05-01 20:00:00 16.3 12 Sudoeste 35 Sudoeste 0 -- -- 66
2020-05-01 19:00:00 18.3 19 Sudoeste 38 Sudoeste 0 -- -- 59
2020-05-01 18:00:00 17.9 22 Sudoeste 42 Oeste 0 -- -- 60
2020-05-01 17:00:00 18.5 21 Oeste 39 Oeste 0 -- -- 60
2020-05-01 16:00:00 18.3 14 Oeste 45 Oeste 0 -- -- 60
2020-05-01 15:00:00 17.3 17 Oeste 45 Sudoeste 0 -- -- 62
2020-05-01 14:00:00 16.8 22 Sudoeste 47 Sudoeste 0 -- -- 64
2020-05-01 13:00:00 15.1 21 Sudoeste 45 Sudoeste 0 -- -- 73
2020-05-01 12:00:00 15 23 Sudoeste 42 Oeste 0 -- -- 71
2020-05-01 11:00:00 13.2 18 Sudoeste 41 Oeste 0 -- -- 77
2020-05-01 10:00:00 11.5 13 Sur 25 Sudoeste 0 -- -- 84
2020-05-01 09:00:00 10.8 12 Sudoeste 32 Sudoeste 0 -- -- 84
2020-05-01 08:00:00 9 7 Sudoeste 28 Sudoeste 0 -- -- 89
2020-05-01 07:00:00 9 17 Sudoeste 32 Sudoeste 0 -- -- 89
2020-05-01 06:00:00 9.4 3 Sudeste 41 Oeste 0 -- -- 86
2020-05-01 05:00:00 9.4 18 Sudoeste 31 Sudoeste 0 -- -- 86
2020-05-01 04:00:00 9 9 Sudoeste 32 Sudoeste 0 -- -- 85
2020-05-01 03:00:00 9.1 9 Sudoeste 32 Sudoeste 0 -- -- 85
2020-05-01 02:00:00 9 10 Sudoeste 35 Oeste 0 -- -- 86
2020-05-01 01:00:00 9.3 18 Oeste 45 Oeste 0 -- -- 82
2020-05-01 00:00:00 9.4 19 Oeste 45 Oeste 0 -- -- 81
2020-04-30 23:00:00 9.5 20 Oeste 49 Oeste 0 -- -- 80
2020-04-30 22:00:00 9.3 6 Sudoeste 26 Oeste 0 -- -- 82
2020-04-30 21:00:00 9.3 11 Sudoeste 25 Sudoeste 0 -- -- 82
2020-04-30 20:00:00 9.9 13 Sudoeste 31 Sudoeste 0 -- -- 77
2020-04-30 19:00:00 10.6 11 Sudoeste 24 Sudoeste 0 -- -- 73
2020-04-30 18:00:00 10.6 9 Sur 22 Sudoeste 0 -- -- 74
2020-04-30 17:00:00 11.2 12 Sudoeste 32 Sudoeste 0 -- -- 74
2020-04-30 16:00:00 11.4 15 Sudoeste 43 Oeste 0 -- -- 66
2020-04-30 15:00:00 10.7 15 Sudoeste 39 Sudoeste 0 -- -- 67
2020-04-30 14:00:00 10.7 19 Sudoeste 41 Oeste 0 -- -- 67
2020-04-30 13:00:00 10.9 27 Sudoeste 51 Sudoeste 0 -- -- 69
2020-04-30 12:00:00 10.2 24 Oeste 46 Sudoeste 0 -- -- 66
2020-04-30 11:00:00 7.9 21 Oeste 46 Sudoeste 0 -- -- 77
2020-04-30 10:00:00 6.5 8 Sudoeste 25 Oeste 0.2 -- -- 85
2020-04-30 09:00:00 5.9 10 Sudoeste 29 Sudoeste 0.2 -- -- 88
2020-04-30 08:00:00 5.8 12 Sudoeste 30 Sudoeste 0 -- -- 84
2020-04-30 07:00:00 6 11 Sudoeste 24 Oeste 0 -- -- 78
2020-04-30 06:00:00 6.2 6 Oeste 24 Oeste 0 -- -- 72
2020-04-30 05:00:00 6.9 12 Oeste 36 Oeste 0 -- -- 73
2020-04-30 04:00:00 7.5 22 Oeste 40 Oeste 0 -- -- 71
2020-04-30 03:00:00 8.2 18 Oeste 36 Sudoeste 0 -- -- 72
2020-04-30 02:00:00 8.6 20 Oeste 36 Oeste 0 -- -- 76
2020-04-30 01:00:00 8.8 17 Sudoeste 34 Sudoeste 0 -- -- 78
2020-04-30 00:00:00 8.9 16 Sudoeste 37 Oeste 0 -- -- 78
2020-04-29 23:00:00 9 15 Sudoeste 37 Sudoeste 0 -- -- 77
2020-04-29 22:00:00 9.4 17 Sudoeste 43 Sudoeste 0 -- -- 74
2020-04-29 21:00:00 9.9 25 Sudoeste 42 Sudoeste 0 -- -- 70
2020-04-29 20:00:00 11 15 Oeste 33 Oeste 0 -- -- 67
2020-04-29 19:00:00 11.1 19 Oeste 43 Oeste 0 -- -- 67
2020-04-29 18:00:00 11.6 7 Sudoeste 41 Sudoeste 0.2 -- -- 75
2020-04-29 17:00:00 14.4 18 Sudoeste 52 Sudoeste 0 -- -- 54
2020-04-29 16:00:00 14.5 23 Sudoeste 50 Sudoeste 0 -- -- 53
2020-04-29 15:00:00 13.3 10 Sudoeste 28 Sudoeste 0 -- -- 63
2020-04-29 14:00:00 11.5 10 Oeste 37 Oeste 0 -- -- 64
2020-04-29 13:00:00 12.2 17 Oeste 42 Sudoeste 0 -- -- 60
2020-04-29 12:00:00 12.4 16 Oeste 44 Oeste 0 -- -- 54
2020-04-29 11:00:00 10.8 22 Oeste 40 Oeste 0 -- -- 61
2020-04-29 10:00:00 9.8 19 Sudoeste 31 Sudoeste 0 -- -- 70
2020-04-29 09:00:00 8.1 14 Oeste 26 Noroeste 0 -- -- 74
2020-04-29 08:00:00 2.8 5 Noroeste 15 Noroeste 0 -- -- 87
2020-04-29 07:00:00 0.9 2 Noroeste 9 Norte 0 -- -- 88
2020-04-29 06:00:00 1.6 4 Nordeste 13 Noroeste 0 -- -- 88
2020-04-29 05:00:00 1.8 3 Norte 12 Norte 0 -- -- 88
2020-04-29 04:00:00 3.1 4 Norte 12 Sur 0 -- -- 84
2020-04-29 03:00:00 3.5 5 Sur 12 Oeste 0 -- -- 79
2020-04-29 02:00:00 5.2 2 Oeste 19 Oeste 0 -- -- 72
2020-04-29 01:00:00 4.9 4 Este 13 Norte 0 -- -- 76
2020-04-29 00:00:00 5.2 6 Sudeste 20 Noroeste 0 -- -- 78
2020-04-28 23:00:00 5.8 4 Oeste 11 Oeste 0 -- -- 77
2020-04-28 22:00:00 6.6 7 Oeste 16 Oeste 0 -- -- 72
2020-04-28 21:00:00 8.2 6 Noroeste 21 Oeste 0 -- -- 66
2020-04-28 20:00:00 9.7 8 Oeste 28 Sudoeste 0 -- -- 61
2020-04-28 19:00:00 12.1 13 Sudoeste 37 Oeste 0 -- -- 60
2020-04-28 18:00:00 12.7 15 Oeste 32 Oeste 0 -- -- 57
2020-04-28 17:00:00 11.3 21 Oeste 40 Oeste 0 -- -- 59
2020-04-28 16:00:00 10.6 10 Oeste 39 Oeste 0 -- -- 70
2020-04-28 15:00:00 11 19 Sudoeste 36 Sudoeste 0 -- -- 61
2020-04-28 14:00:00 10 15 Sudoeste 33 Oeste 0 -- -- 70
2020-04-28 13:00:00 8.3 6 Sudoeste 36 Sudoeste 0 -- -- 80
2020-04-28 12:00:00 7.7 13 Oeste 31 Sudoeste 0 -- -- 77
2020-04-28 11:00:00 6.4 17 Sudoeste 32 Sudoeste 0 -- -- 76
2020-04-28 10:00:00 6.3 6 Sur 18 Sudoeste 0 -- -- 84
2020-04-28 09:00:00 5.8 9 Sur 14 Sur 0 -- -- 88
2020-04-28 08:00:00 4.7 4 Sur 18 Oeste 0 -- -- 93
2020-04-28 07:00:00 4 5 Sudoeste 24 Sudoeste 0 -- -- 95
2020-04-28 06:00:00 3.9 4 Norte 19 Sudoeste 0 -- -- 93
2020-04-28 05:00:00 4.4 8 Sudoeste 15 Sudoeste 0 -- -- 95
2020-04-28 04:00:00 4 2 Sur 10 Sudoeste 0 -- -- 96
2020-04-28 03:00:00 3.5 3 Norte 8 Sudoeste 0 -- -- 95
2020-04-28 02:00:00 4.1 2 Noroeste 8 Norte 0.2 -- -- 94
2020-04-28 01:00:00 4.1 4 Norte 10 Norte 0 -- -- 94
2020-04-28 00:00:00 4 7 Norte 9 Norte 0 -- -- 94
2020-04-27 23:00:00 4.6 0 Calma 9 Sudoeste 0 -- -- 91
2020-04-27 22:00:00 5.9 2 Sudoeste 7 Sudeste 0 -- -- 89
2020-04-27 21:00:00 6.7 3 Sur 18 Sudoeste 0.4 -- -- 86
2020-04-27 20:00:00 8.4 5 Sudoeste 24 Oeste 0 -- -- 83
2020-04-27 19:00:00 9.2 7 Oeste 15 Sur 0.2 -- -- 88
2020-04-27 18:00:00 7.4 3 Sudoeste 29 Sudoeste 1.8 -- -- 87
2020-04-27 17:00:00 9.8 12 Sudeste 27 Sudoeste 0 -- -- 78
2020-04-27 16:00:00 12.7 13 Sudoeste 28 Sudoeste 0.2 -- -- 62
2020-04-27 15:00:00 12.9 13 Oeste 32 Sudoeste 0 -- -- 64
2020-04-27 14:00:00 10.1 9 Oeste 25 Oeste 0.2 -- -- 86
2020-04-27 13:00:00 10.1 11 Oeste 28 Sudoeste 0.2 -- -- 78
2020-04-27 12:00:00 10.8 15 Sudoeste 28 Sudoeste 0 -- -- 69
2020-04-27 11:00:00 10.6 18 Oeste 30 Oeste 0 -- -- 78
2020-04-27 10:00:00 8.4 9 Sudoeste 17 Sudoeste 0 -- -- 94
2020-04-27 09:00:00 7 5 Sudoeste 12 Sudoeste 0.6 -- -- 96
2020-04-27 08:00:00 6.5 0 Calma 3 Sudeste 0 -- -- 97
2020-04-27 07:00:00 6.1 2 Noroeste 7 Noroeste 0 -- -- 96
2020-04-27 06:00:00 6 4 Norte 8 Norte 0 -- -- 96
2020-04-27 05:00:00 5.7 3 Noroeste 6 Noroeste 0 -- -- 96
2020-04-27 04:00:00 7.1 0 Calma 4 Norte 0 -- -- 94
2020-04-27 03:00:00 7.8 0 Calma 3 Sur 0 -- -- 95
2020-04-27 02:00:00 8.1 0 Calma 5 Sudoeste 0 -- -- 94
2020-04-27 01:00:00 8.3 0 Calma 4 Nordeste 0 -- -- 94
2020-04-27 00:00:00 8.6 0 Calma 5 Norte 0 -- -- 93
2020-04-26 23:00:00 9.1 0 Calma 12 Sur 0.6 -- -- 90
2020-04-26 22:00:00 10.2 0 Calma 11 Sur 0 -- -- 90
2020-04-26 21:00:00 10.7 0 Calma 12 Sudeste 0 -- -- 86
2020-04-26 20:00:00 11.7 8 Sur 14 Sudeste 0 -- -- 81
2020-04-26 19:00:00 12.4 6 Sur 13 Sur 0 -- -- 81
2020-04-26 18:00:00 11.3 4 Sur 22 Sudoeste 0 -- -- 82
2020-04-26 17:00:00 11.4 6 Sur 14 Sudoeste 0 -- -- 88
2020-04-26 16:00:00 11.6 3 Sudoeste 21 Sur 2.8 -- -- 88
2020-04-26 15:00:00 12.6 10 Sur 18 Sur 0 -- -- 80
2020-04-26 14:00:00 11.9 7 Sudeste 15 Sudeste 0 -- -- 82
2020-04-26 13:00:00 11 8 Sur 17 Sur 0 -- -- 83
2020-04-26 12:00:00 12.1 11 Sur 17 Sudoeste 0 -- -- 82
2020-04-26 11:00:00 11.8 5 Sur 9 Sur 0 -- -- 83
2020-04-26 10:00:00 -- 0 Calma -- -- 0 -- -- --
2020-04-26 09:00:00 8.5 5 Norte 7 Norte 0 -- -- 95
2020-04-26 08:00:00 7.4 4 Norte 8 Norte 0 -- -- 95
2020-04-26 07:00:00 7 6 Norte 9 Norte 0 -- -- 95
2020-04-26 06:00:00 6.6 6 Norte 12 Norte 0 -- -- 94
2020-04-26 05:00:00 6.8 7 Norte 14 Noroeste 0 -- -- 94
2020-04-26 04:00:00 7 8 Noroeste 12 Norte 0 -- -- 93
2020-04-26 03:00:00 8.2 5 Norte 8 Norte 0 -- -- 93
2020-04-26 02:00:00 8.7 3 Nordeste 15 Norte 0 -- -- 90
2020-04-26 01:00:00 8.9 12 Norte 17 Norte 0 -- -- 88
2020-04-26 00:00:00 9 10 Norte 19 Norte 0.6 -- -- 89